Portada
METAR-TAF:

METAR-TAF

Aeropuertos :

Aeropuerto de Madrid-Cuatro Vientos

Madrid-Cuatro Vientos, España

latitud: 40-23N, longitud: 003-47W, altitud: 690 m

Observación

El informe se hizo hace 37 minutos, a las 15:30 UTC
Viento 8 kt del oeste-suroeste, variando entre sur-suroeste y noroeste
Temperatura 31°C
Humedad 26%
Presión 1020 hPa
Visibilidad 10 km o más
Escasas nubes a una altura de 5500 ft

METAR: LEVS 211530Z 24008KT 210V320 9999 FEW055 31/09 Q1020

Hora: 18:07 (16:07 UTC)

Pronóstico

El informe se hizo hace 2 horas y 7 minutos, a las 14:00 UTC
Pronóstico válido del 21 a las 15 UTC al 21 a las 24 UTC
Viento 5 kt del sur-suroeste
Visibilidad 10 km o más
Escasas nubes a una altura de 5000 ft
Probabilidad 30% :
Temporalmente
del 21 a las 15 UTC al 21 a las 18 UTC
Escasas nubes a una altura de 4000 ft, Cumulus congestus.

TAF: LEVS 211400Z 2115/2124 20005KT 9999 FEW050 PROB30 TEMPO 2115/2118 FEW040TCU

Observaciones y pronósticos meteorológicos de más de 4000 aeropuertos (mensajes METAR y TAF).

Los puntos amarillos y rojos representan las estaciones disponibles.

Ponga el ratón en el punto deseado para ver el nombre de la estación.

Haga clic para ver las observaciones y los pronósticos meteorológicos.

Para cambiar el mapa : haga clic en los botones verdes con una cruz de color negro para hacer un zoom, en el botón verde con un guión para alejar o en las flechas verdes para mapas adyacentes.


METAR-TAF: